• Join FlightAware (Why Join?)
  • Login
  • US Flag 
11:49PM EDT


 

Airport Tracker/Info


-or-


 

Live Flight TrackerFlight Track Log ✈ GGA1 ✈ 12-Apr-2013 ✈ KSAV - KAHN

Flight Track Log - Related Links

Times and Time Zones

All times are in EDT time to prevent confusion due to time zone crossing. See the GGA1 flight status page for this flight to view local times or setup timezone preferences in your user account.

Time Position Orientation Groundspeed Altitude Reporting Facility
EDT Latitude Longitude Course Direction KTS MPH feet Rate Location/Type
01:58PM 32.1950 -81.2036 351° North 159 183 2,600  Level Jacksonville Center
01:59PM 32.2325 -81.2103 351° North 169 194 4,000 1,500 Climbing Jacksonville Center
02:00PM 32.2911 -81.2189 353° North 178 205 5,700 1,500 Climbing Jacksonville Center
02:01PM 32.3456 -81.2303 350° North 197 227 7,100 1,560 Climbing Jacksonville Center
02:02PM 32.3897 -81.2542 335° Northwest 190 219 8,900 1,740 Climbing Jacksonville Center
02:03PM 32.4278 -81.2878 323° Northwest 174 200 10,600 1,620 Climbing Jacksonville Center
02:04PM 32.4575 -81.3292 310° West 174 200 12,200 1,620 Climbing Jacksonville Center
02:05PM 32.4956 -81.3778 313° West 185 213 13,900 900 Climbing Jacksonville Center
02:06PM 32.5317 -81.4264 311° West 212 244 14,000  Climbing Jacksonville Center
02:07PM 32.5825 -81.4897 314° West 238 274 14,000  Level Jacksonville Center
02:08PM 32.6250 -81.5458 312° West 244 281 14,000  Level Jacksonville Center
02:09PM 32.6672 -81.6044 311° West 244 281 14,000  Level Jacksonville Center
02:10PM 32.7181 -81.6703 313° West 244 281 14,000  Level Jacksonville Center
02:12PM 32.7986 -81.7778 312° West 247 284 14,000  Level Atlanta Center
02:13PM 32.8436 -81.8358 313° West 247 284 14,000  Level Atlanta Center
02:14PM 32.8906 -81.8942 314° West 247 284 14,000  Level Atlanta Center
02:15PM 32.9333 -81.9550 310° West 247 284 14,000  Level Atlanta Center
02:16PM 32.9781 -82.0133 312° West 247 284 14,000  Level Atlanta Center
02:17PM 33.0208 -82.0742 310° West 247 284 14,000  Level Atlanta Center
02:18PM 33.0656 -82.1328 312° West 247 284 14,000  Level Atlanta Center
02:19PM 33.1125 -82.1911 314° West 247 284 14,000  Level Atlanta Center
02:20PM 33.1550 -82.2522 310° West 247 284 14,000  Level Atlanta Center
02:21PM 33.2019 -82.3108 314° West 242 278 14,000  Level Atlanta Center
02:22PM 33.2444 -82.3697 311° West 242 278 14,000  Level Atlanta Center
02:23PM 33.2889 -82.4286 312° West 242 278 14,000  Level Atlanta Center
02:24PM 33.3317 -82.4947 308° West 247 284 14,000  Level Atlanta Center
02:25PM 33.3719 -82.5464 313° West 247 284 14,000  Level Atlanta Center
02:26PM 33.4144 -82.6078 310° West 247 284 14,000  Level Atlanta Center
02:27PM 33.4589 -82.6644 313° West 242 278 14,000  Level Atlanta Center
02:28PM 33.5011 -82.7236 311° West 237 273 14,000  Level Atlanta Center
02:29PM 33.5478 -82.7800 315° West 237 273 14,000  Level Atlanta Center
02:30PM 33.5900 -82.8417 309° West 237 273 14,000  Level Atlanta Center
02:31PM 33.6367 -82.9086 310° West 237 273 14,000 -660 Level Atlanta Center
02:32PM 33.6811 -82.9703 311° West 237 273 12,700 -1,500 Descending Atlanta Center
02:33PM 33.7358 -83.0322 317° Northwest 257 296 11,000 -1,800 Descending Atlanta Center
02:34PM 33.7803 -83.0967 310° West 257 296 9,200 -2,160 Descending Atlanta Center
02:36PM 33.8833 -83.1833 325° Northwest 226 260 4,700 -1,980 Descending Atlanta TRACON
02:37PM 33.9333 -83.2167 331° Northwest 202 232 3,500 -1,320 Descending Atlanta TRACON
02:38PM 33.9500 -83.2667 292° West 134 154 2,100 -960 Descending Atlanta TRACON
02:39PM 33.9589 -83.3050 286° West 136 157 1,600 -480 Descending Atlanta Center
02:43PM 33.9486 -83.3264 132° Southeast  Level Estimated
02:50PM 33.9486 -83.3264 132° Southeast  Level Estimated